sensor_id;sensor_type;location;lat;lon;timestamp;pressure;altitude;pressure_sealevel;temperature;humidity
8047;BME280;67150;42.516;23.358;2023-05-25T00:01:05;88520.56;;;16.04;67.06
8047;BME280;67150;42.516;23.358;2023-05-25T00:03:32;88524.56;;;16.07;66.88
8047;BME280;67150;42.516;23.358;2023-05-25T00:06:00;88519.75;;;16.04;66.93
8047;BME280;67150;42.516;23.358;2023-05-25T00:08:28;88524.72;;;16.05;66.87
8047;BME280;67150;42.516;23.358;2023-05-25T00:10:56;88514.69;;;16.04;66.81
8047;BME280;67150;42.516;23.358;2023-05-25T00:13:23;88513.75;;;16.05;66.82
8047;BME280;67150;42.516;23.358;2023-05-25T00:15:52;88516.13;;;16.06;66.83
8047;BME280;67150;42.516;23.358;2023-05-25T00:18:19;88520.41;;;16.06;66.81
8047;BME280;67150;42.516;23.358;2023-05-25T00:20:46;88511.19;;;16.05;66.80
8047;BME280;67150;42.516;23.358;2023-05-25T00:23:14;88515.31;;;16.06;66.78
8047;BME280;67150;42.516;23.358;2023-05-25T00:25:41;88516.28;;;16.05;66.82
8047;BME280;67150;42.516;23.358;2023-05-25T00:28:10;88499.06;;;15.99;66.73
8047;BME280;67150;42.516;23.358;2023-05-25T00:30:37;88519.63;;;16.05;66.80
8047;BME280;67150;42.516;23.358;2023-05-25T00:33:06;88513.75;;;16.05;66.84
8047;BME280;67150;42.516;23.358;2023-05-25T00:35:35;88513.06;;;16.03;66.82
8047;BME280;67150;42.516;23.358;2023-05-25T00:38:02;88512.13;;;16.04;66.88
8047;BME280;67150;42.516;23.358;2023-05-25T00:40:29;88514.81;;;16.02;66.61
8047;BME280;67150;42.516;23.358;2023-05-25T00:42:58;88487.31;;;15.88;66.68
8047;BME280;67150;42.516;23.358;2023-05-25T00:45:25;88521.50;;;16.03;66.84
8047;BME280;67150;42.516;23.358;2023-05-25T00:47:53;88526.56;;;16.03;66.84
8047;BME280;67150;42.516;23.358;2023-05-25T00:50:32;88522.31;;;16.04;66.81
8047;BME280;67150;42.516;23.358;2023-05-25T00:53:02;88528.31;;;16.03;66.70
8047;BME280;67150;42.516;23.358;2023-05-25T00:55:32;88523.22;;;16.03;66.93
8047;BME280;67150;42.516;23.358;2023-05-25T00:58:03;88520.69;;;16.03;66.93
8047;BME280;67150;42.516;23.358;2023-05-25T01:00:32;88519.09;;;16.02;66.96
8047;BME280;67150;42.516;23.358;2023-05-25T01:03:03;88527.66;;;16.01;66.68
8047;BME280;67150;42.516;23.358;2023-05-25T01:05:39;88524.19;;;16.02;66.92
8047;BME280;67150;42.516;23.358;2023-05-25T01:08:10;88531.81;;;16.02;66.68
8047;BME280;67150;42.516;23.358;2023-05-25T01:10:41;88529.28;;;16.02;66.77
8047;BME280;67150;42.516;23.358;2023-05-25T01:13:09;88535.16;;;16.02;66.87
8047;BME280;67150;42.516;23.358;2023-05-25T01:15:39;88531.81;;;16.02;66.82
8047;BME280;67150;42.516;23.358;2023-05-25T01:18:07;88521.66;;;16.02;66.70
8047;BME280;67150;42.516;23.358;2023-05-25T01:20:34;88524.19;;;16.02;66.91
8047;BME280;67150;42.516;23.358;2023-05-25T01:23:07;88527.66;;;16.01;66.85
8047;BME280;67150;42.516;23.358;2023-05-25T01:25:39;88524.47;;;15.99;66.66
8047;BME280;67150;42.516;23.358;2023-05-25T01:28:11;88521.78;;;16.00;66.92
8047;BME280;67150;42.516;23.358;2023-05-25T01:30:41;88510.06;;;15.90;66.89
8047;BME280;67150;42.516;23.358;2023-05-25T01:33:09;88526.06;;;16.00;66.71
8047;BME280;67150;42.516;23.358;2023-05-25T01:35:37;88523.50;;;16.00;66.55
8047;BME280;67150;42.516;23.358;2023-05-25T01:38:08;88520.97;;;16.00;66.86
8047;BME280;67150;42.516;23.358;2023-05-25T01:40:36;88521.78;;;16.00;66.71
8047;BME280;67150;42.516;23.358;2023-05-25T01:43:03;88516.69;;;16.00;66.79
8047;BME280;67150;42.516;23.358;2023-05-25T01:45:31;88515.88;;;16.00;66.78
8047;BME280;67150;42.516;23.358;2023-05-25T01:48:03;88513.34;;;16.00;66.81
8047;BME280;67150;42.516;23.358;2023-05-25T01:50:36;88514.31;;;15.99;66.57
8047;BME280;67150;42.516;23.358;2023-05-25T01:53:09;88514.31;;;15.99;66.62
8047;BME280;67150;42.516;23.358;2023-05-25T01:55:42;88520.97;;;16.00;66.30
8047;BME280;67150;42.516;23.358;2023-05-25T01:58:13;88514.31;;;15.99;66.63
8047;BME280;67150;42.516;23.358;2023-05-25T02:00:41;88518.59;;;15.98;66.74
8047;BME280;67150;42.516;23.358;2023-05-25T02:03:09;88515.22;;;15.98;66.64
8047;BME280;67150;42.516;23.358;2023-05-25T02:05:38;88516.03;;;15.98;66.60
8047;BME280;67150;42.516;23.358;2023-05-25T02:08:09;88510.59;;;15.93;66.53
8047;BME280;67150;42.516;23.358;2023-05-25T02:10:36;88513.50;;;15.98;66.65
8047;BME280;67150;42.516;23.358;2023-05-25T02:13:03;88517.78;;;15.98;66.67
8047;BME280;67150;42.516;23.358;2023-05-25T02:15:32;88511.25;;;15.95;66.55
8047;BME280;67150;42.516;23.358;2023-05-25T02:17:59;88516.97;;;15.97;66.75
8047;BME280;67150;42.516;23.358;2023-05-25T02:20:26;88522.06;;;15.97;66.58
8047;BME280;67150;42.516;23.358;2023-05-25T02:22:54;88521.13;;;15.98;66.49
8047;BME280;67150;42.516;23.358;2023-05-25T02:25:22;88521.28;;;15.97;66.64
8047;BME280;67150;42.516;23.358;2023-05-25T02:27:50;88523.81;;;15.97;66.52
8047;BME280;67150;42.516;23.358;2023-05-25T02:30:17;88527.28;;;15.96;66.53
8047;BME280;67150;42.516;23.358;2023-05-25T02:32:44;88529.03;;;15.95;66.50
8047;BME280;67150;42.516;23.358;2023-05-25T02:35:11;88501.25;;;15.84;66.48
8047;BME280;67150;42.516;23.358;2023-05-25T02:37:39;88534.91;;;15.96;66.36
8047;BME280;67150;42.516;23.358;2023-05-25T02:40:07;88532.38;;;15.96;66.44
8047;BME280;67150;42.516;23.358;2023-05-25T02:42:36;88531.72;;;15.94;66.39
8047;BME280;67150;42.516;23.358;2023-05-25T02:45:06;88541.88;;;15.94;66.52
8047;BME280;67150;42.516;23.358;2023-05-25T02:47:35;88534.25;;;15.94;66.47
8047;BME280;67150;42.516;23.358;2023-05-25T02:50:02;88537.72;;;15.93;66.49
8047;BME280;67150;42.516;23.358;2023-05-25T02:52:30;88536.00;;;15.93;66.52
8047;BME280;67150;42.516;23.358;2023-05-25T02:54:57;88540.28;;;15.93;66.41
8047;BME280;67150;42.516;23.358;2023-05-25T02:57:24;88536.28;;;15.90;66.47
8047;BME280;67150;42.516;23.358;2023-05-25T02:59:54;88533.59;;;15.92;66.59
8047;BME280;67150;42.516;23.358;2023-05-25T03:02:21;88542.00;;;15.92;66.55
8047;BME280;67150;42.516;23.358;2023-05-25T03:04:50;88545.47;;;15.91;66.44
8047;BME280;67150;42.516;23.358;2023-05-25T03:07:18;88548.03;;;15.91;66.43
8047;BME280;67150;42.516;23.358;2023-05-25T03:09:46;88545.63;;;15.90;66.48
8047;BME280;67150;42.516;23.358;2023-05-25T03:12:13;88549.63;;;15.92;66.59
8047;BME280;67150;42.516;23.358;2023-05-25T03:14:40;88547.25;;;15.91;66.59
8047;BME280;67150;42.516;23.358;2023-05-25T03:17:09;88548.97;;;15.90;66.66
8047;BME280;67150;42.516;23.358;2023-05-25T03:19:36;88547.25;;;15.91;66.69
8047;BME280;67150;42.516;23.358;2023-05-25T03:22:04;88545.63;;;15.90;66.67
8047;BME280;67150;42.516;23.358;2023-05-25T03:24:31;88548.19;;;15.90;66.54
8047;BME280;67150;42.516;23.358;2023-05-25T03:26:58;88544.28;;;15.86;66.76
8047;BME280;67150;42.516;23.358;2023-05-25T03:29:26;88563.41;;;15.90;66.68
8047;BME280;67150;42.516;23.358;2023-05-25T03:31:53;88555.00;;;15.89;66.52
8047;BME280;67150;42.516;23.358;2023-05-25T03:34:22;88561.69;;;15.90;66.79
8047;BME280;67150;42.516;23.358;2023-05-25T03:36:51;88556.34;;;15.84;66.62
8047;BME280;67150;42.516;23.358;2023-05-25T03:39:19;88561.81;;;15.89;66.65
8047;BME280;67150;42.516;23.358;2023-05-25T03:41:47;88559.28;;;15.89;66.60
8047;BME280;67150;42.516;23.358;2023-05-25T03:44:14;88558.47;;;15.88;66.53
8047;BME280;67150;42.516;23.358;2023-05-25T03:46:41;88555.91;;;15.88;66.66
8047;BME280;67150;42.516;23.358;2023-05-25T03:49:08;88557.69;;;15.88;66.52
8047;BME280;67150;42.516;23.358;2023-05-25T03:51:41;88563.53;;;15.88;66.77
8047;BME280;67150;42.516;23.358;2023-05-25T03:54:08;88560.22;;;15.88;66.50
8047;BME280;67150;42.516;23.358;2023-05-25T03:56:36;88566.22;;;15.87;66.63
8047;BME280;67150;42.516;23.358;2023-05-25T03:59:03;88568.78;;;15.87;66.69
8047;BME280;67150;42.516;23.358;2023-05-25T04:01:30;88572.13;;;15.87;66.78
8047;BME280;67150;42.516;23.358;2023-05-25T04:03:57;88572.25;;;15.86;66.57
8047;BME280;67150;42.516;23.358;2023-05-25T04:06:25;88575.59;;;15.86;66.56
8047;BME280;67150;42.516;23.358;2023-05-25T04:08:56;88582.41;;;15.86;66.52
8047;BME280;67150;42.516;23.358;2023-05-25T04:11:24;88576.53;;;15.85;66.48
8047;BME280;67150;42.516;23.358;2023-05-25T04:13:52;88578.28;;;15.85;66.73
8047;BME280;67150;42.516;23.358;2023-05-25T04:16:19;88584.94;;;15.86;66.67
8047;BME280;67150;42.516;23.358;2023-05-25T04:18:47;88586.84;;;15.84;66.89
8047;BME280;67150;42.516;23.358;2023-05-25T04:21:14;88580.81;;;15.85;66.59
8047;BME280;67150;42.516;23.358;2023-05-25T04:23:42;88584.28;;;15.84;66.78
8047;BME280;67150;42.516;23.358;2023-05-25T04:26:11;88595.25;;;15.84;66.61
8047;BME280;67150;42.516;23.358;2023-05-25T04:28:40;88567.34;;;15.75;66.76
8047;BME280;67150;42.516;23.358;2023-05-25T04:31:07;88593.38;;;15.86;66.75
8047;BME280;67150;42.516;23.358;2023-05-25T04:33:37;88587.50;;;15.86;66.76
8047;BME280;67150;42.516;23.358;2023-05-25T04:36:05;88595.13;;;15.86;66.59
8047;BME280;67150;42.516;23.358;2023-05-25T04:38:33;88595.78;;;15.88;66.61
8047;BME280;67150;42.516;23.358;2023-05-25T04:41:00;88591.38;;;15.90;66.56
8047;BME280;67150;42.516;23.358;2023-05-25T04:43:29;88592.19;;;15.90;66.52
8047;BME280;67150;42.516;23.358;2023-05-25T04:45:58;88597.25;;;15.90;66.56
8047;BME280;67150;42.516;23.358;2023-05-25T04:48:25;88603.16;;;15.91;66.59
8047;BME280;67150;42.516;23.358;2023-05-25T04:50:54;88590.56;;;15.89;66.72
8047;BME280;67150;42.516;23.358;2023-05-25T04:53:22;88603.00;;;15.92;66.82
8047;BME280;67150;42.516;23.358;2023-05-25T04:55:49;88597.09;;;15.92;66.51
8047;BME280;67150;42.516;23.358;2023-05-25T04:58:16;88591.38;;;15.90;66.65
8047;BME280;67150;42.516;23.358;2023-05-25T05:00:45;88596.19;;;15.93;66.45
8047;BME280;67150;42.516;23.358;2023-05-25T05:03:12;88600.59;;;15.91;66.55
8047;BME280;67150;42.516;23.358;2023-05-25T05:05:40;88594.28;;;15.95;66.60
8047;BME280;67150;42.516;23.358;2023-05-25T05:08:08;88597.91;;;15.92;66.53
8047;BME280;67150;42.516;23.358;2023-05-25T05:10:36;88602.34;;;15.90;66.55
8047;BME280;67150;42.516;23.358;2023-05-25T05:13:03;88606.34;;;15.93;66.62
8047;BME280;67150;42.516;23.358;2023-05-25T05:15:30;88600.81;;;15.97;66.29
8047;BME280;67150;42.516;23.358;2023-05-25T05:17:59;88592.69;;;15.94;66.55
8047;BME280;67150;42.516;23.358;2023-05-25T05:20:27;88593.19;;;15.97;66.26
8047;BME280;67150;42.516;23.358;2023-05-25T05:22:54;88601.78;;;15.96;66.30
8047;BME280;67150;42.516;23.358;2023-05-25T05:25:21;88600.31;;;15.94;66.47
8047;BME280;67150;42.516;23.358;2023-05-25T05:27:49;88608.06;;;15.92;66.71
8047;BME280;67150;42.516;23.358;2023-05-25T05:30:16;88601.78;;;15.96;66.44
8047;BME280;67150;42.516;23.358;2023-05-25T05:32:43;88610.22;;;15.97;66.48
8047;BME280;67150;42.516;23.358;2023-05-25T05:35:12;88604.81;;;16.00;66.43
8047;BME280;67150;42.516;23.358;2023-05-25T05:37:39;88603.78;;;16.02;66.24
8047;BME280;67150;42.516;23.358;2023-05-25T05:40:08;88609.75;;;16.11;65.84
8047;BME280;67150;42.516;23.358;2023-05-25T05:42:35;88607.91;;;16.03;66.21
8047;BME280;67150;42.516;23.358;2023-05-25T05:45:06;88606.03;;;16.05;66.14
8047;BME280;67150;42.516;23.358;2023-05-25T05:47:33;88609.34;;;16.06;66.31
8047;BME280;67150;42.516;23.358;2023-05-25T05:50:01;88603.88;;;16.10;65.95
8047;BME280;67150;42.516;23.358;2023-05-25T05:52:33;88608.97;;;16.10;65.98
8047;BME280;67150;42.516;23.358;2023-05-25T05:55:00;88602.00;;;16.03;66.36
8047;BME280;67150;42.516;23.358;2023-05-25T05:57:27;88596.66;;;16.06;66.35
8047;BME280;67150;42.516;23.358;2023-05-25T05:59:55;88608.72;;;16.04;66.25
8047;BME280;67150;42.516;23.358;2023-05-25T06:02:22;88607.50;;;16.08;66.25
8047;BME280;67150;42.516;23.358;2023-05-25T06:04:49;88607.78;;;16.05;66.50
8047;BME280;67150;42.516;23.358;2023-05-25T06:07:19;88599.91;;;15.98;66.28
8047;BME280;67150;42.516;23.358;2023-05-25T06:09:48;88610.84;;;16.08;66.36
8047;BME280;67150;42.516;23.358;2023-05-25T06:12:16;88610.84;;;16.08;66.37
8047;BME280;67150;42.516;23.358;2023-05-25T06:14:43;88611.78;;;16.07;66.39
8047;BME280;67150;42.516;23.358;2023-05-25T06:17:14;88610.41;;;16.13;66.20
8047;BME280;67150;42.516;23.358;2023-05-25T06:19:41;88598.97;;;15.99;66.33
8047;BME280;67150;42.516;23.358;2023-05-25T06:22:08;88612.16;;;16.12;66.38
8047;BME280;67150;42.516;23.358;2023-05-25T06:24:36;88613.50;;;16.16;66.30
8047;BME280;67150;42.516;23.358;2023-05-25T06:27:05;88615.06;;;16.17;66.61
8047;BME280;67150;42.516;23.358;2023-05-25T06:29:32;88619.38;;;16.17;66.23
8047;BME280;67150;42.516;23.358;2023-05-25T06:31:59;88614.13;;;16.18;66.45
8047;BME280;67150;42.516;23.358;2023-05-25T06:34:27;88618.69;;;16.15;66.53
8047;BME280;67150;42.516;23.358;2023-05-25T06:36:54;88619.38;;;16.17;66.77
8047;BME280;67150;42.516;23.358;2023-05-25T06:39:21;88625.78;;;16.21;66.57
8047;BME280;67150;42.516;23.358;2023-05-25T06:41:49;88624.47;;;16.17;66.90
8047;BME280;67150;42.516;23.358;2023-05-25T06:44:18;88621.13;;;16.16;67.24
8047;BME280;67150;42.516;23.358;2023-05-25T06:46:45;88629.66;;;16.15;67.15
8047;BME280;67150;42.516;23.358;2023-05-25T06:49:14;88625.13;;;16.19;67.22
8047;BME280;67150;42.516;23.358;2023-05-25T06:51:41;88627.09;;;16.25;66.98
8047;BME280;67150;42.516;23.358;2023-05-25T06:54:09;88624.56;;;16.25;66.85
8047;BME280;67150;42.516;23.358;2023-05-25T06:56:38;88623.91;;;16.23;66.78
8047;BME280;67150;42.516;23.358;2023-05-25T06:59:06;88625.13;;;16.19;67.29
8047;BME280;67150;42.516;23.358;2023-05-25T07:01:35;88624.84;;;16.22;67.21
8047;BME280;67150;42.516;23.358;2023-05-25T07:04:02;88626.56;;;16.21;67.44
8047;BME280;67150;42.516;23.358;2023-05-25T07:06:29;88626.28;;;16.24;67.25
8047;BME280;67150;42.516;23.358;2023-05-25T07:08:57;88623.34;;;16.29;67.18
8047;BME280;67150;42.516;23.358;2023-05-25T07:11:25;88624.56;;;16.25;67.53
8047;BME280;67150;42.516;23.358;2023-05-25T07:13:52;88616.38;;;16.31;67.60
8047;BME280;67150;42.516;23.358;2023-05-25T07:16:20;88618.28;;;16.29;67.36
8047;BME280;67150;42.516;23.358;2023-05-25T07:18:48;88616.94;;;16.25;67.47
8047;BME280;67150;42.516;23.358;2023-05-25T07:21:16;88623.72;;;16.34;67.04
8047;BME280;67150;42.516;23.358;2023-05-25T07:23:43;88617.03;;;16.33;67.23
8047;BME280;67150;42.516;23.358;2023-05-25T07:26:10;88616.66;;;16.28;67.45
8047;BME280;67150;42.516;23.358;2023-05-25T07:28:40;88618.75;;;16.33;67.65
8047;BME280;67150;42.516;23.358;2023-05-25T07:31:08;88627.84;;;16.35;67.13
8047;BME280;67150;42.516;23.358;2023-05-25T07:33:36;88631.63;;;16.31;67.48
8047;BME280;67150;42.516;23.358;2023-05-25T07:36:05;88631.34;;;16.34;67.27
8047;BME280;67150;42.516;23.358;2023-05-25T07:38:33;88633.75;;;16.36;67.27
8047;BME280;67150;42.516;23.358;2023-05-25T07:41:00;88627.56;;;16.38;67.07
8047;BME280;67150;42.516;23.358;2023-05-25T07:43:27;88628.66;;;16.36;66.99
8047;BME280;67150;42.516;23.358;2023-05-25T07:45:55;88628.81;;;16.34;67.06
8047;BME280;67150;42.516;23.358;2023-05-25T07:48:22;88620.50;;;16.32;66.94
8047;BME280;67150;42.516;23.358;2023-05-25T07:50:49;88629.63;;;16.35;66.87
8047;BME280;67150;42.516;23.358;2023-05-25T07:53:18;88628.66;;;16.36;67.20
8047;BME280;67150;42.516;23.358;2023-05-25T07:55:46;88627.84;;;16.35;67.33
8047;BME280;67150;42.516;23.358;2023-05-25T07:58:13;88634.03;;;16.33;67.22
8047;BME280;67150;42.516;23.358;2023-05-25T08:00:40;88636.97;;;16.38;67.04
8047;BME280;67150;42.516;23.358;2023-05-25T08:03:08;88637.38;;;16.33;67.32
8047;BME280;67150;42.516;23.358;2023-05-25T08:05:35;88637.25;;;16.35;67.38
8047;BME280;67150;42.516;23.358;2023-05-25T08:08:02;88637.25;;;16.35;67.34
8047;BME280;67150;42.516;23.358;2023-05-25T08:10:31;88635.47;;;16.35;67.22
8047;BME280;67150;42.516;23.358;2023-05-25T08:12:59;88641.53;;;16.34;67.15
8047;BME280;67150;42.516;23.358;2023-05-25T08:15:26;88644.88;;;16.35;67.15
8047;BME280;67150;42.516;23.358;2023-05-25T08:17:53;88645.16;;;16.32;67.26
8047;BME280;67150;42.516;23.358;2023-05-25T08:20:21;88599.75;;;16.00;67.04
8047;BME280;67150;42.516;23.358;2023-05-25T08:22:50;88645.28;;;16.30;67.25
8047;BME280;67150;42.516;23.358;2023-05-25T08:25:19;88649.72;;;16.28;67.35
8047;BME280;67150;42.516;23.358;2023-05-25T08:27:48;88656.69;;;16.26;67.39
8047;BME280;67150;42.516;23.358;2023-05-25T08:30:15;88660.81;;;16.27;67.22
8047;BME280;67150;42.516;23.358;2023-05-25T08:32:45;88665.91;;;16.27;67.29
8047;BME280;67150;42.516;23.358;2023-05-25T08:35:13;88678.59;;;16.27;67.27
8047;BME280;67150;42.516;23.358;2023-05-25T08:37:40;88676.06;;;16.27;67.23
8047;BME280;67150;42.516;23.358;2023-05-25T08:40:13;88668.34;;;16.19;67.53
8047;BME280;67150;42.516;23.358;2023-05-25T08:42:41;88681.41;;;16.24;67.59
8047;BME280;67150;42.516;23.358;2023-05-25T08:45:10;88682.78;;;16.18;67.60
8047;BME280;67150;42.516;23.358;2023-05-25T08:47:40;88692.69;;;16.21;67.51
8047;BME280;67150;42.516;23.358;2023-05-25T08:50:10;88692.69;;;16.21;67.66
8047;BME280;67150;42.516;23.358;2023-05-25T08:52:38;88674.25;;;16.10;67.68
8047;BME280;67150;42.516;23.358;2023-05-25T08:55:08;88691.88;;;16.21;67.58
8047;BME280;67150;42.516;23.358;2023-05-25T08:57:47;88692.28;;;16.16;67.64
8047;BME280;67150;42.516;23.358;2023-05-25T09:00:24;88709.81;;;16.19;67.72
8047;BME280;67150;42.516;23.358;2023-05-25T09:02:59;88706.47;;;16.19;67.59
8047;BME280;67150;42.516;23.358;2023-05-25T09:05:31;88708.19;;;16.18;67.69
8047;BME280;67150;42.516;23.358;2023-05-25T09:07:59;88682.84;;;15.99;67.94
8047;BME280;67150;42.516;23.358;2023-05-25T09:10:28;88707.41;;;16.18;67.79
8047;BME280;67150;42.516;23.358;2023-05-25T09:12:56;88706.59;;;16.17;67.87
8047;BME280;67150;42.516;23.358;2023-05-25T09:15:26;88705.00;;;16.16;67.91
8047;BME280;67150;42.516;23.358;2023-05-25T09:17:53;88700.72;;;16.17;67.78
8047;BME280;67150;42.516;23.358;2023-05-25T09:20:22;88697.78;;;16.12;67.90
8047;BME280;67150;42.516;23.358;2023-05-25T09:22:50;88699.66;;;16.10;67.91
8047;BME280;67150;42.516;23.358;2023-05-25T09:25:18;88684.69;;;15.97;67.92
8047;BME280;67150;42.516;23.358;2023-05-25T09:27:46;88700.19;;;16.13;67.95
8047;BME280;67150;42.516;23.358;2023-05-25T09:30:13;88700.19;;;16.13;67.88
8047;BME280;67150;42.516;23.358;2023-05-25T09:32:43;88695.09;;;16.13;68.03
8047;BME280;67150;42.516;23.358;2023-05-25T09:35:11;88687.88;;;16.09;68.18
8047;BME280;67150;42.516;23.358;2023-05-25T09:37:40;88704.47;;;16.13;67.91
8047;BME280;67150;42.516;23.358;2023-05-25T09:40:09;88699.38;;;16.13;68.03
8047;BME280;67150;42.516;23.358;2023-05-25T09:42:37;88689.22;;;16.13;68.08
8047;BME280;67150;42.516;23.358;2023-05-25T09:45:05;88694.31;;;16.13;68.19
8047;BME280;67150;42.516;23.358;2023-05-25T09:47:35;88696.84;;;16.13;68.16
8047;BME280;67150;42.516;23.358;2023-05-25T09:50:05;88696.84;;;16.13;68.10
8047;BME280;67150;42.516;23.358;2023-05-25T09:52:33;88695.38;;;16.10;68.11
8047;BME280;67150;42.516;23.358;2023-05-25T09:55:01;88697.78;;;16.12;68.18
8047;BME280;67150;42.516;23.358;2023-05-25T09:57:29;88691.09;;;16.11;68.21
8047;BME280;67150;42.516;23.358;2023-05-25T09:59:56;88691.09;;;16.11;68.18
8047;BME280;67150;42.516;23.358;2023-05-25T10:02:23;88693.50;;;16.12;68.20
8047;BME280;67150;42.516;23.358;2023-05-25T10:04:51;88685.47;;;16.07;68.17
8047;BME280;67150;42.516;23.358;2023-05-25T10:07:20;88696.84;;;16.13;68.14
8047;BME280;67150;42.516;23.358;2023-05-25T10:09:50;88688.03;;;16.07;68.13
8047;BME280;67150;42.516;23.358;2023-05-25T10:12:19;88683.47;;;16.11;68.18
8047;BME280;67150;42.516;23.358;2023-05-25T10:14:49;88680.13;;;16.10;68.31
8047;BME280;67150;42.516;23.358;2023-05-25T10:17:20;88656.88;;;15.96;68.37
8047;BME280;67150;42.516;23.358;2023-05-25T10:19:54;88682.53;;;16.12;68.29
8047;BME280;67150;42.516;23.358;2023-05-25T10:22:29;88686.41;;;16.16;68.40
8047;BME280;67150;42.516;23.358;2023-05-25T10:25:03;88681.31;;;16.16;68.46
8047;BME280;67150;42.516;23.358;2023-05-25T10:27:38;88683.84;;;16.16;68.50
8047;BME280;67150;42.516;23.358;2023-05-25T10:30:08;88677.84;;;16.17;68.46
8047;BME280;67150;42.516;23.358;2023-05-25T10:32:36;88632.94;;;15.89;68.50
8047;BME280;67150;42.516;23.358;2023-05-25T10:35:04;88671.81;;;16.18;68.57
8047;BME280;67150;42.516;23.358;2023-05-25T10:37:34;88667.97;;;16.14;68.23
8047;BME280;67150;42.516;23.358;2023-05-25T10:40:06;88673.41;;;16.19;68.48
8047;BME280;67150;42.516;23.358;2023-05-25T10:42:36;88662.97;;;16.22;68.33
8047;BME280;67150;42.516;23.358;2023-05-25T10:45:05;88652.00;;;16.21;68.35
8047;BME280;67150;42.516;23.358;2023-05-25T10:47:34;88655.19;;;16.23;68.17
8047;BME280;67150;42.516;23.358;2023-05-25T10:50:03;88655.06;;;16.25;68.22
8047;BME280;67150;42.516;23.358;2023-05-25T10:52:31;88647.06;;;16.20;68.29
8047;BME280;67150;42.516;23.358;2023-05-25T10:55:00;88647.44;;;16.25;68.21
8047;BME280;67150;42.516;23.358;2023-05-25T10:57:29;88644.63;;;16.28;68.15
8047;BME280;67150;42.516;23.358;2023-05-25T11:00:01;88634.44;;;16.28;68.15
8047;BME280;67150;42.516;23.358;2023-05-25T11:02:46;88636.19;;;16.27;68.07
8047;BME280;67150;42.516;23.358;2023-05-25T11:05:36;88635.38;;;16.27;68.05
8047;BME280;67150;42.516;23.358;2023-05-25T11:08:05;88642.72;;;16.30;67.98
8047;BME280;67150;42.516;23.358;2023-05-25T11:10:52;88648.47;;;16.32;68.04
8047;BME280;67150;42.516;23.358;2023-05-25T11:13:33;88617.63;;;16.17;68.23
8047;BME280;67150;42.516;23.358;2023-05-25T11:16:11;88641.16;;;16.29;68.23
8047;BME280;67150;42.516;23.358;2023-05-25T11:18:40;88641.00;;;16.31;68.15
8047;BME280;67150;42.516;23.358;2023-05-25T11:21:12;88635.91;;;16.31;68.40
8047;BME280;67150;42.516;23.358;2023-05-25T11:23:52;88633.81;;;16.26;68.48
8047;BME280;67150;42.516;23.358;2023-05-25T11:26:21;88641.94;;;16.30;68.49
8047;BME280;67150;42.516;23.358;2023-05-25T11:28:50;88641.94;;;16.30;68.51
8047;BME280;67150;42.516;23.358;2023-05-25T11:31:24;88635.25;;;16.29;68.50
8047;BME280;67150;42.516;23.358;2023-05-25T11:33:54;88613.34;;;16.18;68.67
8047;BME280;67150;42.516;23.358;2023-05-25T11:36:23;88630.03;;;16.30;68.58
8047;BME280;67150;42.516;23.358;2023-05-25T11:38:52;88630.03;;;16.30;68.75
8047;BME280;67150;42.516;23.358;2023-05-25T11:41:21;88635.09;;;16.30;68.66
8047;BME280;67150;42.516;23.358;2023-05-25T11:43:49;88631.47;;;16.33;68.60
8047;BME280;67150;42.516;23.358;2023-05-25T11:46:18;88630.41;;;16.35;68.41
8047;BME280;67150;42.516;23.358;2023-05-25T11:48:50;88631.19;;;16.36;68.58
8047;BME280;67150;42.516;23.358;2023-05-25T11:51:19;88629.63;;;16.35;68.54
8047;BME280;67150;42.516;23.358;2023-05-25T11:53:46;88621.84;;;16.36;68.64
8047;BME280;67150;42.516;23.358;2023-05-25T11:56:15;88616.09;;;16.34;68.61
8047;BME280;67150;42.516;23.358;2023-05-25T11:58:45;88614.38;;;16.35;68.62
8047;BME280;67150;42.516;23.358;2023-05-25T12:01:17;88611.13;;;16.33;68.40
8047;BME280;67150;42.516;23.358;2023-05-25T12:03:45;88619.28;;;16.36;68.60
8047;BME280;67150;42.516;23.358;2023-05-25T12:06:25;88620.91;;;16.37;68.58
8047;BME280;67150;42.516;23.358;2023-05-25T12:08:53;88604.59;;;16.30;68.32
8047;BME280;67150;42.516;23.358;2023-05-25T12:11:27;88626.00;;;16.37;68.44
8047;BME280;67150;42.516;23.358;2023-05-25T12:13:56;88620.91;;;16.37;68.45
8047;BME280;67150;42.516;23.358;2023-05-25T12:16:24;88615.00;;;16.37;68.52
8047;BME280;67150;42.516;23.358;2023-05-25T12:18:53;88613.13;;;16.39;68.45
8047;BME280;67150;42.516;23.358;2023-05-25T12:21:21;88611.53;;;16.38;68.32
8047;BME280;67150;42.516;23.358;2023-05-25T12:23:48;88609.78;;;16.38;68.31
8047;BME280;67150;42.516;23.358;2023-05-25T12:26:17;88557.88;;;16.04;68.39
8047;BME280;67150;42.516;23.358;2023-05-25T12:29:02;88609.66;;;16.40;68.37
8047;BME280;67150;42.516;23.358;2023-05-25T12:31:31;88604.56;;;16.40;68.21
8047;BME280;67150;42.516;23.358;2023-05-25T12:34:05;88606.03;;;16.42;68.11
8047;BME280;67150;42.516;23.358;2023-05-25T12:36:42;88542.06;;;16.10;68.21
8047;BME280;67150;42.516;23.358;2023-05-25T12:39:11;88593.81;;;16.46;68.15
8047;BME280;67150;42.516;23.358;2023-05-25T12:41:46;88597.31;;;16.45;68.58
8047;BME280;67150;42.516;23.358;2023-05-25T12:44:23;88591.81;;;16.49;68.55
8047;BME280;67150;42.516;23.358;2023-05-25T12:46:51;88585.47;;;16.53;68.38
8047;BME280;67150;42.516;23.358;2023-05-25T12:49:26;88577.75;;;16.45;68.44
8047;BME280;67150;42.516;23.358;2023-05-25T12:51:54;88577.19;;;16.51;68.41
8047;BME280;67150;42.516;23.358;2023-05-25T12:54:38;88568.63;;;16.52;68.52
8047;BME280;67150;42.516;23.358;2023-05-25T12:57:09;88582.03;;;16.54;68.53
8047;BME280;67150;42.516;23.358;2023-05-25T12:59:39;88566.88;;;16.53;68.25
8047;BME280;67150;42.516;23.358;2023-05-25T13:02:07;88563.66;;;16.60;68.41
8047;BME280;67150;42.516;23.358;2023-05-25T13:04:35;88566.19;;;16.60;68.31
8047;BME280;67150;42.516;23.358;2023-05-25T13:07:03;88565.91;;;16.63;68.24
8047;BME280;67150;42.516;23.358;2023-05-25T13:09:31;88565.13;;;16.63;68.25